sensor_id;sensor_type;location;lat;lon;timestamp;pressure;altitude;pressure_sealevel;temperature;humidity
3444;BME280;1736;52.068;6.968;2022-11-20T00:00:11;100821.91;;;-4.00;97.43
3444;BME280;1736;52.068;6.968;2022-11-20T00:02:37;100827.88;;;-3.97;97.62
3444;BME280;1736;52.068;6.968;2022-11-20T00:05:05;100822.84;;;-4.03;97.73
3444;BME280;1736;52.068;6.968;2022-11-20T00:07:31;100823.72;;;-4.04;97.29
3444;BME280;1736;52.068;6.968;2022-11-20T00:09:58;100825.50;;;-4.06;97.46
3444;BME280;1736;52.068;6.968;2022-11-20T00:12:24;100823.09;;;-4.15;97.36
3444;BME280;1736;52.068;6.968;2022-11-20T00:14:51;100831.84;;;-4.19;97.51
3444;BME280;1736;52.068;6.968;2022-11-20T00:17:18;100835.97;;;-4.10;97.48
3444;BME280;1736;52.068;6.968;2022-11-20T00:19:45;100833.69;;;-4.24;97.20
3444;BME280;1736;52.068;6.968;2022-11-20T00:22:11;100829.28;;;-4.20;97.34
3444;BME280;1736;52.068;6.968;2022-11-20T00:24:38;100834.50;;;-4.23;97.10
3444;BME280;1736;52.068;6.968;2022-11-20T00:27:04;100842.41;;;-4.28;97.29
3444;BME280;1736;52.068;6.968;2022-11-20T00:29:31;100832.16;;;-4.34;97.25
3444;BME280;1736;52.068;6.968;2022-11-20T00:31:57;100829.56;;;-4.34;97.53
3444;BME280;1736;52.068;6.968;2022-11-20T00:34:25;100827.91;;;-4.38;97.79
3444;BME280;1736;52.068;6.968;2022-11-20T00:36:52;100839.13;;;-4.36;97.91
3444;BME280;1736;52.068;6.968;2022-11-20T00:39:18;100826.97;;;-4.34;98.06
3444;BME280;1736;52.068;6.968;2022-11-20T00:41:44;100822.75;;;-4.38;98.06
3444;BME280;1736;52.068;6.968;2022-11-20T00:44:11;100811.56;;;-4.40;98.15
3444;BME280;1736;52.068;6.968;2022-11-20T00:46:37;100819.34;;;-4.40;98.40
3444;BME280;1736;52.068;6.968;2022-11-20T00:49:04;100815.88;;;-4.40;98.54
3444;BME280;1736;52.068;6.968;2022-11-20T00:51:32;100819.34;;;-4.40;98.74
3444;BME280;1736;52.068;6.968;2022-11-20T00:53:59;100815.06;;;-4.41;98.70
3444;BME280;1736;52.068;6.968;2022-11-20T00:56:27;100814.97;;;-4.38;98.73
3444;BME280;1736;52.068;6.968;2022-11-20T00:58:53;100822.84;;;-4.41;98.70
3444;BME280;1736;52.068;6.968;2022-11-20T01:01:22;100813.34;;;-4.43;98.52
3444;BME280;1736;52.068;6.968;2022-11-20T01:03:50;100814.38;;;-4.49;98.45
3444;BME280;1736;52.068;6.968;2022-11-20T01:06:19;100818.72;;;-4.51;98.51
3444;BME280;1736;52.068;6.968;2022-11-20T01:08:48;100817.81;;;-4.50;98.47
3444;BME280;1736;52.068;6.968;2022-11-20T01:11:18;100822.22;;;-4.53;98.45
3444;BME280;1736;52.068;6.968;2022-11-20T01:13:46;100807.59;;;-4.56;98.46
3444;BME280;1736;52.068;6.968;2022-11-20T01:16:14;100806.75;;;-4.58;98.46
3444;BME280;1736;52.068;6.968;2022-11-20T01:18:43;100803.41;;;-4.63;98.61
3444;BME280;1736;52.068;6.968;2022-11-20T01:21:11;100800.72;;;-4.57;98.93
3444;BME280;1736;52.068;6.968;2022-11-20T01:23:39;100794.75;;;-4.62;98.84
3444;BME280;1736;52.068;6.968;2022-11-20T01:26:10;100784.47;;;-4.63;98.80
3444;BME280;1736;52.068;6.968;2022-11-20T01:28:37;100782.66;;;-4.60;99.16
3444;BME280;1736;52.068;6.968;2022-11-20T01:31:11;100788.78;;;-4.64;98.75
3444;BME280;1736;52.068;6.968;2022-11-20T01:33:38;100796.56;;;-4.65;98.78
3444;BME280;1736;52.068;6.968;2022-11-20T01:36:06;100793.06;;;-4.63;98.47
3444;BME280;1736;52.068;6.968;2022-11-20T01:38:33;100787.84;;;-4.61;98.46
3444;BME280;1736;52.068;6.968;2022-11-20T01:40:59;100799.31;;;-4.71;98.14
3444;BME280;1736;52.068;6.968;2022-11-20T01:43:28;100792.47;;;-4.75;98.10
3444;BME280;1736;52.068;6.968;2022-11-20T01:46:03;100788.16;;;-4.76;98.00
3444;BME280;1736;52.068;6.968;2022-11-20T01:48:35;100790.03;;;-4.83;98.13
3444;BME280;1736;52.068;6.968;2022-11-20T01:51:04;100780.50;;;-4.81;98.55
3444;BME280;1736;52.068;6.968;2022-11-20T01:53:33;100778.72;;;-4.79;98.75
3444;BME280;1736;52.068;6.968;2022-11-20T01:56:05;100778.72;;;-4.79;98.76
3444;BME280;1736;52.068;6.968;2022-11-20T01:58:38;100772.84;;;-4.87;98.88
3444;BME280;1736;52.068;6.968;2022-11-20T02:01:07;100776.31;;;-4.88;98.80
3444;BME280;1736;52.068;6.968;2022-11-20T02:03:34;100772.94;;;-4.90;98.78
3444;BME280;1736;52.068;6.968;2022-11-20T02:06:04;100765.16;;;-4.90;98.99
3444;BME280;1736;52.068;6.968;2022-11-20T02:08:33;100765.19;;;-4.91;98.94
3444;BME280;1736;52.068;6.968;2022-11-20T02:11:00;100764.38;;;-4.95;98.69
3444;BME280;1736;52.068;6.968;2022-11-20T02:13:27;100772.16;;;-4.95;98.79
3444;BME280;1736;52.068;6.968;2022-11-20T02:16:14;100766.06;;;-4.92;98.80
3444;BME280;1736;52.068;6.968;2022-11-20T02:18:42;100766.03;;;-4.91;98.71
3444;BME280;1736;52.068;6.968;2022-11-20T02:21:14;100762.63;;;-4.93;98.42
3444;BME280;1736;52.068;6.968;2022-11-20T02:23:58;100759.88;;;-4.85;98.53
3444;BME280;1736;52.068;6.968;2022-11-20T02:26:27;100749.56;;;-4.87;98.42
3444;BME280;1736;52.068;6.968;2022-11-20T02:28:54;100740.16;;;-4.91;98.46
3444;BME280;1736;52.068;6.968;2022-11-20T02:31:21;100747.94;;;-4.92;98.69
3444;BME280;1736;52.068;6.968;2022-11-20T02:33:47;100757.41;;;-4.90;98.93
3444;BME280;1736;52.068;6.968;2022-11-20T02:36:15;100762.50;;;-4.87;99.14
3444;BME280;1736;52.068;6.968;2022-11-20T02:38:43;100756.59;;;-4.93;99.03
3444;BME280;1736;52.068;6.968;2022-11-20T02:41:11;100748.03;;;-4.95;98.92
3444;BME280;1736;52.068;6.968;2022-11-20T02:43:37;100743.78;;;-4.98;99.00
3444;BME280;1736;52.068;6.968;2022-11-20T02:46:08;100741.25;;;-5.02;98.83
3444;BME280;1736;52.068;6.968;2022-11-20T02:48:34;100745.59;;;-5.04;98.74
3444;BME280;1736;52.068;6.968;2022-11-20T02:51:01;100739.66;;;-5.09;98.71
3444;BME280;1736;52.068;6.968;2022-11-20T02:53:28;100739.63;;;-5.06;98.76
3444;BME280;1736;52.068;6.968;2022-11-20T02:55:55;100736.94;;;-5.02;98.94
3444;BME280;1736;52.068;6.968;2022-11-20T02:58:23;100730.94;;;-5.04;99.21
3444;BME280;1736;52.068;6.968;2022-11-20T03:00:49;100732.72;;;-5.06;99.18
3444;BME280;1736;52.068;6.968;2022-11-20T03:03:16;100737.00;;;-5.05;99.01
3444;BME280;1736;52.068;6.968;2022-11-20T03:05:42;100730.13;;;-5.06;98.92
3444;BME280;1736;52.068;6.968;2022-11-20T03:08:09;100733.56;;;-5.07;98.83
3444;BME280;1736;52.068;6.968;2022-11-20T03:10:35;100737.09;;;-5.11;98.60
3444;BME280;1736;52.068;6.968;2022-11-20T03:13:02;100727.66;;;-5.12;98.61
3444;BME280;1736;52.068;6.968;2022-11-20T03:15:30;100723.34;;;-5.11;98.48
3444;BME280;1736;52.068;6.968;2022-11-20T03:17:56;100723.41;;;-5.16;98.03
3444;BME280;1736;52.068;6.968;2022-11-20T03:20:23;100723.47;;;-5.19;98.29
3444;BME280;1736;52.068;6.968;2022-11-20T03:22:50;100720.88;;;-5.19;98.33
3444;BME280;1736;52.068;6.968;2022-11-20T03:25:17;100728.63;;;-5.19;98.48
3444;BME280;1736;52.068;6.968;2022-11-20T03:27:43;100713.97;;;-5.18;98.61
3444;BME280;1736;52.068;6.968;2022-11-20T03:30:10;100716.59;;;-5.20;98.51
3444;BME280;1736;52.068;6.968;2022-11-20T03:32:38;100716.59;;;-5.20;98.54
3444;BME280;1736;52.068;6.968;2022-11-20T03:35:06;100732.13;;;-5.20;98.44
3444;BME280;1736;52.068;6.968;2022-11-20T03:37:32;100722.72;;;-5.24;98.32
3444;BME280;1736;52.068;6.968;2022-11-20T03:39:59;100725.44;;;-5.30;98.51
3444;BME280;1736;52.068;6.968;2022-11-20T03:42:25;100724.56;;;-5.30;98.56
3444;BME280;1736;52.068;6.968;2022-11-20T03:45:09;100726.25;;;-5.28;98.56
3444;BME280;1736;52.068;6.968;2022-11-20T03:47:36;100721.09;;;-5.29;98.84
3444;BME280;1736;52.068;6.968;2022-11-20T03:50:05;100713.41;;;-5.32;98.93
3444;BME280;1736;52.068;6.968;2022-11-20T03:52:31;100719.44;;;-5.33;99.24
3444;BME280;1736;52.068;6.968;2022-11-20T03:54:58;100716.84;;;-5.32;99.32
3444;BME280;1736;52.068;6.968;2022-11-20T03:57:24;100726.28;;;-5.31;99.36
3444;BME280;1736;52.068;6.968;2022-11-20T03:59:51;100716.94;;;-5.36;99.43
3444;BME280;1736;52.068;6.968;2022-11-20T04:02:18;100715.28;;;-5.40;99.23
3444;BME280;1736;52.068;6.968;2022-11-20T04:04:44;100711.88;;;-5.44;98.91
3444;BME280;1736;52.068;6.968;2022-11-20T04:07:12;100706.81;;;-5.47;99.06
3444;BME280;1736;52.068;6.968;2022-11-20T04:09:38;100701.75;;;-5.55;98.79
3444;BME280;1736;52.068;6.968;2022-11-20T04:12:05;100704.31;;;-5.53;98.85
3444;BME280;1736;52.068;6.968;2022-11-20T04:14:32;100705.25;;;-5.57;98.76
3444;BME280;1736;52.068;6.968;2022-11-20T04:16:58;100703.41;;;-5.51;98.73
3444;BME280;1736;52.068;6.968;2022-11-20T04:19:25;100696.59;;;-5.56;98.41
3444;BME280;1736;52.068;6.968;2022-11-20T04:21:51;100701.00;;;-5.61;98.53
3444;BME280;1736;52.068;6.968;2022-11-20T04:24:20;100707.03;;;-5.59;98.83
3444;BME280;1736;52.068;6.968;2022-11-20T04:26:46;100698.25;;;-5.52;98.94
3444;BME280;1736;52.068;6.968;2022-11-20T04:29:13;100695.59;;;-5.47;98.58
3444;BME280;1736;52.068;6.968;2022-11-20T04:31:39;100693.16;;;-5.55;98.44
3444;BME280;1736;52.068;6.968;2022-11-20T04:34:06;100688.09;;;-5.61;98.33
3444;BME280;1736;52.068;6.968;2022-11-20T04:36:33;100688.00;;;-5.55;98.50
3444;BME280;1736;52.068;6.968;2022-11-20T04:39:02;100683.75;;;-5.59;98.62
3444;BME280;1736;52.068;6.968;2022-11-20T04:41:32;100681.22;;;-5.62;98.77
3444;BME280;1736;52.068;6.968;2022-11-20T04:44:00;100683.88;;;-5.67;98.83
3444;BME280;1736;52.068;6.968;2022-11-20T04:46:29;100694.84;;;-5.54;99.14
3444;BME280;1736;52.068;6.968;2022-11-20T04:48:56;100696.63;;;-5.58;99.28
3444;BME280;1736;52.068;6.968;2022-11-20T04:51:23;100699.22;;;-5.58;99.42
3444;BME280;1736;52.068;6.968;2022-11-20T04:53:50;100709.56;;;-5.58;99.39
3444;BME280;1736;52.068;6.968;2022-11-20T04:56:16;100704.56;;;-5.67;98.97
3444;BME280;1736;52.068;6.968;2022-11-20T04:58:44;100701.09;;;-5.66;98.99
3444;BME280;1736;52.068;6.968;2022-11-20T05:01:12;100707.97;;;-5.63;98.52
3444;BME280;1736;52.068;6.968;2022-11-20T05:03:39;100708.78;;;-5.61;98.41
3444;BME280;1736;52.068;6.968;2022-11-20T05:06:07;100696.78;;;-5.65;97.96
3444;BME280;1736;52.068;6.968;2022-11-20T05:08:34;100702.84;;;-5.66;97.82
3444;BME280;1736;52.068;6.968;2022-11-20T05:11:01;100702.06;;;-5.71;97.85
3444;BME280;1736;52.068;6.968;2022-11-20T05:13:28;100706.38;;;-5.72;97.77
3444;BME280;1736;52.068;6.968;2022-11-20T05:16:00;100702.84;;;-5.66;97.73
3444;BME280;1736;52.068;6.968;2022-11-20T05:18:27;100695.09;;;-5.66;97.57
3444;BME280;1736;52.068;6.968;2022-11-20T05:20:55;100700.34;;;-5.72;97.38
3444;BME280;1736;52.068;6.968;2022-11-20T05:23:21;100687.56;;;-5.80;97.33
3444;BME280;1736;52.068;6.968;2022-11-20T05:25:48;100684.13;;;-5.80;97.26
3444;BME280;1736;52.068;6.968;2022-11-20T05:28:17;100687.56;;;-5.80;97.43
3444;BME280;1736;52.068;6.968;2022-11-20T05:30:44;100689.25;;;-5.79;97.35
3444;BME280;1736;52.068;6.968;2022-11-20T05:33:11;100681.47;;;-5.76;97.45
3444;BME280;1736;52.068;6.968;2022-11-20T05:35:38;100677.19;;;-5.77;97.68
3444;BME280;1736;52.068;6.968;2022-11-20T05:38:05;100675.44;;;-5.76;97.51
3444;BME280;1736;52.068;6.968;2022-11-20T05:40:31;100673.69;;;-5.74;97.46
3444;BME280;1736;52.068;6.968;2022-11-20T05:42:58;100679.75;;;-5.75;97.44
3444;BME280;1736;52.068;6.968;2022-11-20T05:45:25;100676.31;;;-5.77;97.52
3444;BME280;1736;52.068;6.968;2022-11-20T05:47:52;100674.50;;;-5.72;97.74
3444;BME280;1736;52.068;6.968;2022-11-20T05:50:20;100676.22;;;-5.71;97.67
3444;BME280;1736;52.068;6.968;2022-11-20T05:52:46;100670.25;;;-5.75;97.76
3444;BME280;1736;52.068;6.968;2022-11-20T05:55:13;100677.09;;;-5.72;98.01
3444;BME280;1736;52.068;6.968;2022-11-20T05:57:39;100684.84;;;-5.72;97.63
3444;BME280;1736;52.068;6.968;2022-11-20T06:00:07;100684.78;;;-5.69;97.28
3444;BME280;1736;52.068;6.968;2022-11-20T06:02:34;100682.22;;;-5.69;97.32
3444;BME280;1736;52.068;6.968;2022-11-20T06:05:00;100686.66;;;-5.77;97.27
3444;BME280;1736;52.068;6.968;2022-11-20T06:07:28;100691.03;;;-5.79;97.26
3444;BME280;1736;52.068;6.968;2022-11-20T06:09:55;100690.25;;;-5.84;97.54
3444;BME280;1736;52.068;6.968;2022-11-20T06:12:21;100693.78;;;-5.88;97.64
3444;BME280;1736;52.068;6.968;2022-11-20T06:14:48;100704.19;;;-5.91;97.86
3444;BME280;1736;52.068;6.968;2022-11-20T06:17:14;100711.91;;;-5.90;97.32
3444;BME280;1736;52.068;6.968;2022-11-20T06:19:41;100703.22;;;-5.86;97.47
3444;BME280;1736;52.068;6.968;2022-11-20T06:22:08;100698.00;;;-5.84;97.17
3444;BME280;1736;52.068;6.968;2022-11-20T06:24:35;100692.03;;;-5.86;97.01
3444;BME280;1736;52.068;6.968;2022-11-20T06:27:02;100692.06;;;-5.88;96.98
3444;BME280;1736;52.068;6.968;2022-11-20T06:29:29;100692.97;;;-5.92;97.17
3444;BME280;1736;52.068;6.968;2022-11-20T06:31:55;100685.16;;;-5.87;97.26
3444;BME280;1736;52.068;6.968;2022-11-20T06:34:22;100677.41;;;-5.87;97.22
3444;BME280;1736;52.068;6.968;2022-11-20T06:36:48;100686.09;;;-5.91;97.06
3444;BME280;1736;52.068;6.968;2022-11-20T06:39:15;100678.41;;;-5.96;97.12
3444;BME280;1736;52.068;6.968;2022-11-20T06:41:42;100682.72;;;-5.96;97.17
3444;BME280;1736;52.068;6.968;2022-11-20T06:44:09;100690.53;;;-5.99;97.34
3444;BME280;1736;52.068;6.968;2022-11-20T06:46:36;100687.97;;;-5.99;97.39
3444;BME280;1736;52.068;6.968;2022-11-20T06:49:03;100686.16;;;-5.96;97.62
3444;BME280;1736;52.068;6.968;2022-11-20T06:51:29;100697.34;;;-5.95;97.51
3444;BME280;1736;52.068;6.968;2022-11-20T06:53:56;100698.16;;;-5.92;97.69
3444;BME280;1736;52.068;6.968;2022-11-20T06:56:22;100693.84;;;-5.91;97.37
3444;BME280;1736;52.068;6.968;2022-11-20T06:58:50;100704.22;;;-5.94;97.37
3444;BME280;1736;52.068;6.968;2022-11-20T07:01:17;100696.47;;;-5.94;97.54
3444;BME280;1736;52.068;6.968;2022-11-20T07:03:43;100687.03;;;-5.97;97.38
3444;BME280;1736;52.068;6.968;2022-11-20T07:06:10;100677.63;;;-5.99;97.40
3444;BME280;1736;52.068;6.968;2022-11-20T07:08:37;100681.84;;;-5.95;97.32
3444;BME280;1736;52.068;6.968;2022-11-20T07:11:05;100691.25;;;-5.91;97.34
3444;BME280;1736;52.068;6.968;2022-11-20T07:13:33;100705.00;;;-5.91;97.17
3444;BME280;1736;52.068;6.968;2022-11-20T07:16:02;100698.81;;;-5.81;97.19
3444;BME280;1736;52.068;6.968;2022-11-20T07:18:29;100690.25;;;-5.84;97.07
3444;BME280;1736;52.068;6.968;2022-11-20T07:20:59;100692.91;;;-5.86;97.07
3444;BME280;1736;52.068;6.968;2022-11-20T07:23:26;100690.22;;;-5.81;97.35
3444;BME280;1736;52.068;6.968;2022-11-20T07:25:53;100692.53;;;-5.69;97.24
3444;BME280;1736;52.068;6.968;2022-11-20T07:28:19;100691.75;;;-5.73;97.33
3444;BME280;1736;52.068;6.968;2022-11-20T07:30:49;100691.72;;;-5.71;97.27
3444;BME280;1736;52.068;6.968;2022-11-20T07:33:17;100690.81;;;-5.69;97.06
3444;BME280;1736;52.068;6.968;2022-11-20T07:35:45;100696.03;;;-5.70;97.62
3444;BME280;1736;52.068;6.968;2022-11-20T07:38:12;100703.66;;;-5.64;98.25
3444;BME280;1736;52.068;6.968;2022-11-20T07:40:38;100702.72;;;-5.60;98.29
3444;BME280;1736;52.068;6.968;2022-11-20T07:43:05;100698.34;;;-5.55;98.47
3444;BME280;1736;52.068;6.968;2022-11-20T07:45:31;100696.53;;;-5.52;98.55
3444;BME280;1736;52.068;6.968;2022-11-20T07:47:58;100703.25;;;-5.43;98.63
3444;BME280;1736;52.068;6.968;2022-11-20T07:50:26;100680.69;;;-5.35;98.82
3444;BME280;1736;52.068;6.968;2022-11-20T07:53:00;100683.19;;;-5.30;98.78
3444;BME280;1736;52.068;6.968;2022-11-20T07:55:26;100694.13;;;-5.16;98.98
3444;BME280;1736;52.068;6.968;2022-11-20T07:57:54;100688.81;;;-5.10;99.15
3444;BME280;1736;52.068;6.968;2022-11-20T08:00:21;100686.19;;;-5.07;99.07
3444;BME280;1736;52.068;6.968;2022-11-20T08:02:47;100692.97;;;-5.02;99.36
3444;BME280;1736;52.068;6.968;2022-11-20T08:05:14;100687.63;;;-4.94;99.70
3444;BME280;1736;52.068;6.968;2022-11-20T08:07:43;100681.31;;;-4.83;99.88
3444;BME280;1736;52.068;6.968;2022-11-20T08:10:11;100686.34;;;-4.75;99.90
3444;BME280;1736;52.068;6.968;2022-11-20T08:12:44;100689.50;;;-4.63;99.80
3444;BME280;1736;52.068;6.968;2022-11-20T08:15:28;100683.31;;;-4.56;99.89
3444;BME280;1736;52.068;6.968;2022-11-20T08:17:59;100685.75;;;-4.50;99.89
3444;BME280;1736;52.068;6.968;2022-11-20T08:20:26;100677.00;;;-4.44;99.93
3444;BME280;1736;52.068;6.968;2022-11-20T08:22:57;100670.75;;;-4.36;100.00
3444;BME280;1736;52.068;6.968;2022-11-20T08:25:24;100667.13;;;-4.29;100.00
3444;BME280;1736;52.068;6.968;2022-11-20T08:27:50;100668.63;;;-4.20;100.00
3444;BME280;1736;52.068;6.968;2022-11-20T08:30:17;100671.88;;;-4.11;100.00
3444;BME280;1736;52.068;6.968;2022-11-20T08:32:43;100672.53;;;-4.03;100.00
3444;BME280;1736;52.068;6.968;2022-11-20T08:35:10;100666.16;;;-3.91;100.00
3444;BME280;1736;52.068;6.968;2022-11-20T08:37:36;100674.47;;;-3.77;100.00
3444;BME280;1736;52.068;6.968;2022-11-20T08:40:09;100667.22;;;-3.66;100.00
3444;BME280;1736;52.068;6.968;2022-11-20T08:42:36;100667.09;;;-3.60;100.00
3444;BME280;1736;52.068;6.968;2022-11-20T08:45:03;100671.97;;;-3.50;100.00
3444;BME280;1736;52.068;6.968;2022-11-20T08:47:29;100667.19;;;-3.33;100.00
3444;BME280;1736;52.068;6.968;2022-11-20T08:49:56;100666.75;;;-3.18;100.00
3444;BME280;1736;52.068;6.968;2022-11-20T08:52:23;100665.78;;;-3.14;100.00
3444;BME280;1736;52.068;6.968;2022-11-20T08:54:49;100661.31;;;-3.09;100.00
3444;BME280;1736;52.068;6.968;2022-11-20T08:57:17;100672.31;;;-3.01;100.00
3444;BME280;1736;52.068;6.968;2022-11-20T08:59:44;100669.69;;;-2.99;100.00
3444;BME280;1736;52.068;6.968;2022-11-20T09:02:11;100664.28;;;-2.93;100.00
3444;BME280;1736;52.068;6.968;2022-11-20T09:04:37;100665.97;;;-2.91;100.00
3444;BME280;1736;52.068;6.968;2022-11-20T09:07:04;100659.66;;;-2.82;100.00
3444;BME280;1736;52.068;6.968;2022-11-20T09:09:30;100666.28;;;-2.72;100.00
3444;BME280;1736;52.068;6.968;2022-11-20T09:11:57;100660.97;;;-2.69;100.00
3444;BME280;1736;52.068;6.968;2022-11-20T09:14:25;100645.22;;;-2.63;100.00
3444;BME280;1736;52.068;6.968;2022-11-20T09:16:54;100642.38;;;-2.56;100.00
3444;BME280;1736;52.068;6.968;2022-11-20T09:19:20;100654.28;;;-2.49;100.00
3444;BME280;1736;52.068;6.968;2022-11-20T09:21:47;100644.44;;;-2.39;100.00
3444;BME280;1736;52.068;6.968;2022-11-20T09:24:13;100634.50;;;-2.27;100.00
3444;BME280;1736;52.068;6.968;2022-11-20T09:26:40;100630.31;;;-2.05;100.00
3444;BME280;1736;52.068;6.968;2022-11-20T09:29:07;100635.34;;;-2.00;100.00
3444;BME280;1736;52.068;6.968;2022-11-20T09:31:35;100643.78;;;-1.94;100.00
3444;BME280;1736;52.068;6.968;2022-11-20T09:34:01;100631.50;;;-1.89;100.00
3444;BME280;1736;52.068;6.968;2022-11-20T09:36:28;100633.09;;;-1.85;100.00
3444;BME280;1736;52.068;6.968;2022-11-20T09:38:54;100617.25;;;-1.79;100.00
3444;BME280;1736;52.068;6.968;2022-11-20T09:41:55;100629.06;;;-1.69;100.00
3444;BME280;1736;52.068;6.968;2022-11-20T09:44:37;100625.13;;;-1.56;100.00
3444;BME280;1736;52.068;6.968;2022-11-20T09:47:12;100624.78;;;-1.47;100.00
3444;BME280;1736;52.068;6.968;2022-11-20T09:49:55;100622.75;;;-1.39;100.00
3444;BME280;1736;52.068;6.968;2022-11-20T09:52:33;100626.56;;;-1.24;100.00
3444;BME280;1736;52.068;6.968;2022-11-20T09:55:04;100623.78;;;-1.20;100.00
3444;BME280;1736;52.068;6.968;2022-11-20T09:57:36;100626.25;;;-1.17;100.00
3444;BME280;1736;52.068;6.968;2022-11-20T10:00:06;100616.66;;;-1.15;99.83
3444;BME280;1736;52.068;6.968;2022-11-20T10:02:42;100611.19;;;-1.09;99.32
3444;BME280;1736;52.068;6.968;2022-11-20T10:05:12;100611.91;;;-1.04;99.15
3444;BME280;1736;52.068;6.968;2022-11-20T10:07:44;100607.22;;;-0.96;98.53
3444;BME280;1736;52.068;6.968;2022-11-20T10:10:15;100605.25;;;-0.89;98.54
3444;BME280;1736;52.068;6.968;2022-11-20T10:12:54;100604.16;;;-0.84;97.77
3444;BME280;1736;52.068;6.968;2022-11-20T10:15:33;100601.16;;;-0.73;97.57
3444;BME280;1736;52.068;6.968;2022-11-20T10:18:17;100612.91;;;-0.63;96.53
3444;BME280;1736;52.068;6.968;2022-11-20T10:20:55;100612.03;;;-0.64;96.36
3444;BME280;1736;52.068;6.968;2022-11-20T10:23:39;100605.03;;;-0.62;96.29
3444;BME280;1736;52.068;6.968;2022-11-20T10:26:17;100609.09;;;-0.55;96.38
3444;BME280;1736;52.068;6.968;2022-11-20T10:28:56;100614.22;;;-0.53;96.34
3444;BME280;1736;52.068;6.968;2022-11-20T10:31:31;100602.44;;;-0.40;96.63
3444;BME280;1736;52.068;6.968;2022-11-20T10:34:04;100599.75;;;-0.39;96.99
3444;BME280;1736;52.068;6.968;2022-11-20T10:36:34;100589.19;;;-0.36;97.30
3444;BME280;1736;52.068;6.968;2022-11-20T10:39:06;100586.19;;;-0.27;97.56
3444;BME280;1736;52.068;6.968;2022-11-20T10:41:40;100586.59;;;-0.16;97.48
3444;BME280;1736;52.068;6.968;2022-11-20T10:44:14;100589.28;;;-0.17;97.93
3444;BME280;1736;52.068;6.968;2022-11-20T10:47:03;100588.22;;;-0.13;98.23
3444;BME280;1736;52.068;6.968;2022-11-20T10:49:32;100592.56;;;-0.12;98.25
3444;BME280;1736;52.068;6.968;2022-11-20T10:52:05;100584.66;;;-0.11;98.75
3444;BME280;1736;52.068;6.968;2022-11-20T10:54:40;100588.53;;;0.01;99.17
3444;BME280;1736;52.068;6.968;2022-11-20T10:57:20;100586.50;;;0.08;99.33
3444;BME280;1736;52.068;6.968;2022-11-20T10:59:59;100587.31;;;0.08;99.41
3444;BME280;1736;52.068;6.968;2022-11-20T11:02:32;100581.47;;;0.23;99.29
3444;BME280;1736;52.068;6.968;2022-11-20T11:05:10;100567.31;;;0.29;99.07
3444;BME280;1736;52.068;6.968;2022-11-20T11:07:39;100568.09;;;0.31;98.86
3444;BME280;1736;52.068;6.968;2022-11-20T11:10:14;100559.19;;;0.35;99.00
3444;BME280;1736;52.068;6.968;2022-11-20T11:12:44;100553.72;;;0.41;99.00
3444;BME280;1736;52.068;6.968;2022-11-20T11:15:14;100559.38;;;0.50;99.11
3444;BME280;1736;52.068;6.968;2022-11-20T11:17:46;100562.81;;;0.51;99.25
3444;BME280;1736;52.068;6.968;2022-11-20T11:20:19;100560.72;;;0.59;99.47
3444;BME280;1736;52.068;6.968;2022-11-20T11:22:48;100564.81;;;0.64;98.93
3444;BME280;1736;52.068;6.968;2022-11-20T11:25:33;100549.78;;;0.69;98.76
3444;BME280;1736;52.068;6.968;2022-11-20T11:28:02;100557.22;;;0.78;98.68
3444;BME280;1736;52.068;6.968;2022-11-20T11:30:40;100552.13;;;0.94;97.96
3444;BME280;1736;52.068;6.968;2022-11-20T11:33:10;100546.47;;;1.03;98.19
3444;BME280;1736;52.068;6.968;2022-11-20T11:35:44;100547.22;;;1.23;97.48
3444;BME280;1736;52.068;6.968;2022-11-20T11:38:14;100535.41;;;1.33;95.93
3444;BME280;1736;52.068;6.968;2022-11-20T11:40:41;100540.41;;;1.38;95.88
3444;BME280;1736;52.068;6.968;2022-11-20T11:43:18;100538.28;;;1.46;95.58
3444;BME280;1736;52.068;6.968;2022-11-20T11:46:08;100526.28;;;1.59;94.26
3444;BME280;1736;52.068;6.968;2022-11-20T11:48:41;100518.84;;;1.68;94.16
3444;BME280;1736;52.068;6.968;2022-11-20T11:51:09;100522.75;;;1.77;94.04
3444;BME280;1736;52.068;6.968;2022-11-20T11:53:40;100512.75;;;1.85;92.99
3444;BME280;1736;52.068;6.968;2022-11-20T11:56:09;100510.75;;;1.90;92.18
3444;BME280;1736;52.068;6.968;2022-11-20T11:58:42;100505.19;;;1.96;91.85
3444;BME280;1736;52.068;6.968;2022-11-20T12:01:20;100504.13;;;2.00;91.47
3444;BME280;1736;52.068;6.968;2022-11-20T12:03:58;100506.25;;;2.09;90.80
3444;BME280;1736;52.068;6.968;2022-11-20T12:06:27;100507.03;;;2.11;90.18
3444;BME280;1736;52.068;6.968;2022-11-20T12:08:59;100499.63;;;2.19;90.04
3444;BME280;1736;52.068;6.968;2022-11-20T12:11:32;100488.81;;;2.25;89.86
3444;BME280;1736;52.068;6.968;2022-11-20T12:14:04;100490.94;;;2.34;89.20
3444;BME280;1736;52.068;6.968;2022-11-20T12:16:37;100488.44;;;2.48;87.87
3444;BME280;1736;52.068;6.968;2022-11-20T12:19:08;100481.91;;;2.39;87.63
3444;BME280;1736;52.068;6.968;2022-11-20T12:21:45;100473.06;;;2.42;88.00
3444;BME280;1736;52.068;6.968;2022-11-20T12:24:29;100479.81;;;2.46;87.91
3444;BME280;1736;52.068;6.968;2022-11-20T12:27:08;100471.53;;;2.38;87.78
3444;BME280;1736;52.068;6.968;2022-11-20T12:29:48;100466.56;;;2.33;88.23
3444;BME280;1736;52.068;6.968;2022-11-20T12:32:45;100465.69;;;2.33;88.43
3444;BME280;1736;52.068;6.968;2022-11-20T12:35:34;100461.69;;;2.43;88.72
3444;BME280;1736;52.068;6.968;2022-11-20T12:38:29;100461.91;;;2.54;88.67
3444;BME280;1736;52.068;6.968;2022-11-20T12:41:04;100460.41;;;2.65;88.37
3444;BME280;1736;52.068;6.968;2022-11-20T12:43:40;100454.22;;;2.82;86.97
3444;BME280;1736;52.068;6.968;2022-11-20T12:46:31;100452.81;;;2.92;85.23
3444;BME280;1736;52.068;6.968;2022-11-20T12:49:23;100455.22;;;2.95;84.20
3444;BME280;1736;52.068;6.968;2022-11-20T12:52:07;100444.25;;;3.04;84.16
3444;BME280;1736;52.068;6.968;2022-11-20T12:55:01;100424.03;;;3.06;84.62
3444;BME280;1736;52.068;6.968;2022-11-20T12:57:37;100418.13;;;3.02;83.95
3444;BME280;1736;52.068;6.968;2022-11-20T13:00:11;100421.00;;;2.98;84.02
3444;BME280;1736;52.068;6.968;2022-11-20T13:05:46;100401.72;;;2.99;84.49
3444;BME280;1736;52.068;6.968;2022-11-20T13:08:20;100398.34;;;2.97;83.14
3444;BME280;1736;52.068;6.968;2022-11-20T13:10:55;100395.06;;;2.93;83.39
3444;BME280;1736;52.068;6.968;2022-11-20T13:13:30;100393.09;;;2.97;82.78
3444;BME280;1736;52.068;6.968;2022-11-20T13:16:02;100380.00;;;2.97;83.21
3444;BME280;1736;52.068;6.968;2022-11-20T13:18:37;100369.13;;;2.89;83.61
3444;BME280;1736;52.068;6.968;2022-11-20T13:21:17;100373.16;;;2.94;83.16
3444;BME280;1736;52.068;6.968;2022-11-20T13:23:44;100367.44;;;2.88;83.15
3444;BME280;1736;52.068;6.968;2022-11-20T13:26:19;100366.66;;;2.86;83.19
3444;BME280;1736;52.068;6.968;2022-11-20T13:28:58;100346.63;;;2.85;83.51